createdAt,value
2022-12-22T00:01:56.071Z,4.22
2022-12-22T00:04:43.443Z,4.22
2022-12-22T00:07:30.673Z,4.22
2022-12-22T00:10:18.132Z,4.22
2022-12-22T00:13:05.251Z,4.23
2022-12-22T00:15:53.681Z,4.23
2022-12-22T00:18:40.896Z,4.23
2022-12-22T00:21:30.156Z,4.22
2022-12-22T00:24:17.192Z,4.22
2022-12-22T00:27:04.502Z,4.21
2022-12-22T00:29:56.662Z,4.21
2022-12-22T00:32:51.741Z,4.22
2022-12-22T00:35:39.996Z,4.22
2022-12-22T00:38:31.603Z,4.22
2022-12-22T00:41:19.246Z,4.21
2022-12-22T00:44:06.371Z,4.22
2022-12-22T00:46:54.800Z,4.23
2022-12-22T00:49:42.856Z,4.23
2022-12-22T00:52:29.877Z,4.24
2022-12-22T00:55:17.215Z,4.24
2022-12-22T00:58:04.330Z,4.25
2022-12-22T01:00:51.554Z,4.26
2022-12-22T01:03:38.935Z,4.25
2022-12-22T01:06:28.243Z,4.25
2022-12-22T01:09:14.999Z,4.24
2022-12-22T01:12:02.075Z,4.24
2022-12-22T01:14:49.324Z,4.24
2022-12-22T01:17:36.181Z,4.26
2022-12-22T01:20:23.545Z,4.27
2022-12-22T01:23:10.549Z,4.29
2022-12-22T01:25:57.222Z,4.30
2022-12-22T01:28:44.186Z,4.31
2022-12-22T01:31:36.208Z,4.31
2022-12-22T01:34:23.242Z,4.31
2022-12-22T01:37:10.928Z,4.31
2022-12-22T01:39:57.817Z,4.30
2022-12-22T01:42:45.307Z,4.32
2022-12-22T01:45:38.084Z,4.33
2022-12-22T01:48:27.324Z,4.33
2022-12-22T01:51:14.657Z,4.34
2022-12-22T01:54:01.870Z,4.35
2022-12-22T01:56:49.099Z,4.35
2022-12-22T01:59:36.603Z,4.34
2022-12-22T02:02:25.949Z,4.32
2022-12-22T02:05:14.038Z,4.30
2022-12-22T02:08:09.178Z,4.28
2022-12-22T02:11:03.439Z,4.26
2022-12-22T02:13:55.675Z,4.22
2022-12-22T02:16:46.266Z,4.22
2022-12-22T02:19:43.951Z,4.19
2022-12-22T02:22:36.492Z,4.19
2022-12-22T02:25:27.020Z,4.19
2022-12-22T02:28:15.030Z,4.21
2022-12-22T02:31:02.276Z,4.21
2022-12-22T02:33:49.268Z,4.23
2022-12-22T02:36:38.538Z,4.26
2022-12-22T02:39:31.092Z,4.29
2022-12-22T02:42:24.881Z,4.31
2022-12-22T02:45:17.481Z,4.32
2022-12-22T02:48:07.046Z,4.32
2022-12-22T02:50:59.431Z,4.33
2022-12-22T02:53:47.887Z,4.36
2022-12-22T02:56:35.594Z,4.34
2022-12-22T02:59:22.535Z,4.34
2022-12-22T03:02:09.649Z,4.34
2022-12-22T03:04:57.085Z,4.35
2022-12-22T03:07:43.993Z,4.34
2022-12-22T03:10:31.316Z,4.34
2022-12-22T03:13:19.210Z,4.35
2022-12-22T03:16:06.228Z,4.35
2022-12-22T03:18:53.189Z,4.35
2022-12-22T03:21:40.278Z,4.35
2022-12-22T03:24:27.742Z,4.37
2022-12-22T03:26:57.145Z,4.40
2022-12-22T03:29:26.548Z,4.42
2022-12-22T03:31:56.023Z,4.43
2022-12-22T03:34:27.352Z,4.45
2022-12-22T03:36:56.718Z,4.46
2022-12-22T03:39:26.131Z,4.46
2022-12-22T03:42:13.121Z,4.47
2022-12-22T03:45:00.250Z,4.47
2022-12-22T03:47:29.665Z,4.48
2022-12-22T03:49:59.070Z,4.50
2022-12-22T03:52:28.457Z,4.51
2022-12-22T03:54:57.705Z,4.53
2022-12-22T03:57:27.165Z,4.54
2022-12-22T03:59:56.909Z,4.56
2022-12-22T04:02:26.869Z,4.58
2022-12-22T04:04:56.397Z,4.58
2022-12-22T04:07:25.724Z,4.59
2022-12-22T04:10:12.790Z,4.59
2022-12-22T04:12:57.291Z,4.59
2022-12-22T04:15:27.776Z,4.57
2022-12-22T04:17:57.232Z,4.58
2022-12-22T04:20:27.997Z,4.58
2022-12-22T04:22:57.871Z,4.59
2022-12-22T04:25:28.418Z,4.58
2022-12-22T04:27:57.930Z,4.58
2022-12-22T04:30:28.230Z,4.59
2022-12-22T04:32:57.634Z,4.59
2022-12-22T04:35:27.059Z,4.56
2022-12-22T04:37:56.353Z,4.54
2022-12-22T04:40:25.771Z,4.52
2022-12-22T04:42:55.164Z,4.52
2022-12-22T04:45:24.657Z,4.53
2022-12-22T04:47:54.074Z,4.52
2022-12-22T04:50:23.464Z,4.52
2022-12-22T04:52:53.078Z,4.53
2022-12-22T04:55:22.376Z,4.55
2022-12-22T04:57:51.791Z,4.57
2022-12-22T05:00:22.103Z,4.59
2022-12-22T05:02:51.612Z,4.60
2022-12-22T05:05:21.118Z,4.60
2022-12-22T05:07:50.619Z,4.60
2022-12-22T05:10:20.238Z,4.59
2022-12-22T05:12:58.479Z,4.57
2022-12-22T05:15:28.838Z,4.56
2022-12-22T05:17:58.893Z,4.56
2022-12-22T05:20:28.601Z,4.57
2022-12-22T05:22:58.214Z,4.57
2022-12-22T05:25:34.453Z,4.57
2022-12-22T05:28:04.820Z,4.57
2022-12-22T05:30:34.231Z,4.58
2022-12-22T05:33:03.714Z,4.58
2022-12-22T05:35:33.019Z,4.59
2022-12-22T05:38:02.420Z,4.61
2022-12-22T05:40:31.741Z,4.63
2022-12-22T05:43:01.444Z,4.65
2022-12-22T05:45:30.854Z,4.67
2022-12-22T05:48:00.183Z,4.68
2022-12-22T05:50:29.813Z,4.69
2022-12-22T05:53:06.744Z,4.71
2022-12-22T05:55:36.253Z,4.72
2022-12-22T05:58:05.513Z,4.73
2022-12-22T06:00:34.822Z,4.75
2022-12-22T06:03:04.321Z,4.75
2022-12-22T06:05:33.805Z,4.75
2022-12-22T06:08:03.050Z,4.76
2022-12-22T06:10:32.325Z,4.77
2022-12-22T06:13:02.296Z,4.78
2022-12-22T06:15:31.678Z,4.80
2022-12-22T06:18:01.695Z,4.80
2022-12-22T06:20:31.095Z,4.78
2022-12-22T06:23:00.541Z,4.78
2022-12-22T06:25:30.119Z,4.77
2022-12-22T06:27:59.539Z,4.76
2022-12-22T06:30:33.182Z,4.75
2022-12-22T06:33:03.887Z,4.73
2022-12-22T06:35:33.271Z,4.71
2022-12-22T06:38:02.614Z,4.70
2022-12-22T06:40:31.970Z,4.71
2022-12-22T06:43:10.884Z,4.72
2022-12-22T06:45:41.409Z,4.73
2022-12-22T06:48:11.624Z,4.74
2022-12-22T06:50:41.033Z,4.76
2022-12-22T06:53:10.560Z,4.76
2022-12-22T06:55:39.915Z,4.78
2022-12-22T06:58:09.241Z,4.77
2022-12-22T07:00:38.659Z,4.78
2022-12-22T07:03:08.216Z,4.79
2022-12-22T07:05:37.888Z,4.79
2022-12-22T07:08:09.122Z,4.79
2022-12-22T07:10:56.659Z,4.79
2022-12-22T07:13:27.571Z,4.80
2022-12-22T07:16:01.063Z,4.79
2022-12-22T07:18:32.652Z,4.79
2022-12-22T07:21:03.181Z,4.81
2022-12-22T07:23:32.804Z,4.81
2022-12-22T07:26:02.432Z,4.84
2022-12-22T07:28:33.295Z,4.84
2022-12-22T07:31:02.926Z,4.82
2022-12-22T07:33:32.773Z,4.80
2022-12-22T07:36:07.309Z,4.79
2022-12-22T07:38:38.154Z,4.79
2022-12-22T07:41:29.207Z,4.80
2022-12-22T07:43:59.480Z,4.81
2022-12-22T07:46:30.056Z,4.82
2022-12-22T07:49:17.438Z,4.84
2022-12-22T07:51:47.140Z,4.86
2022-12-22T07:54:17.179Z,4.87
2022-12-22T07:56:47.229Z,4.88
2022-12-22T07:59:17.203Z,4.89
2022-12-22T08:01:47.015Z,4.90
2022-12-22T08:04:16.641Z,4.94
2022-12-22T08:06:46.338Z,5.05
2022-12-22T08:09:16.784Z,5.21
2022-12-22T08:11:46.166Z,5.39
2022-12-22T08:14:15.624Z,5.52
2022-12-22T08:16:45.040Z,5.56
2022-12-22T08:19:14.598Z,5.56
2022-12-22T08:21:50.362Z,5.52
2022-12-22T08:24:22.213Z,5.50
2022-12-22T08:26:54.062Z,5.49
2022-12-22T08:29:25.169Z,5.46
2022-12-22T08:31:55.265Z,5.48
2022-12-22T08:34:24.825Z,5.48
2022-12-22T08:36:57.098Z,5.52
2022-12-22T08:39:27.600Z,5.70
2022-12-22T08:41:57.033Z,6.24
2022-12-22T08:44:27.647Z,7.12
2022-12-22T08:46:58.324Z,8.23
2022-12-22T08:49:28.329Z,9.36
2022-12-22T08:51:57.928Z,10.46
2022-12-22T08:54:27.431Z,11.45
2022-12-22T08:56:58.779Z,12.27
2022-12-22T08:59:28.293Z,12.82
2022-12-22T09:01:57.841Z,13.20
2022-12-22T09:04:27.427Z,13.37
2022-12-22T09:06:56.911Z,13.62
2022-12-22T09:09:26.622Z,13.53
2022-12-22T09:11:56.148Z,13.08
2022-12-22T09:14:26.163Z,12.55
2022-12-22T09:16:55.798Z,12.02
2022-12-22T09:19:25.679Z,11.49
2022-12-22T09:21:55.817Z,11.03
2022-12-22T09:24:25.404Z,10.74
2022-12-22T09:26:54.928Z,10.41
2022-12-22T09:29:24.623Z,10.05
2022-12-22T09:31:54.149Z,9.71
2022-12-22T09:34:23.739Z,9.39
2022-12-22T09:36:53.252Z,9.08
2022-12-22T09:39:28.616Z,8.82
2022-12-22T09:41:59.367Z,8.54
2022-12-22T09:44:30.990Z,8.37
2022-12-22T09:47:01.847Z,8.18
2022-12-22T09:49:32.048Z,8.04
2022-12-22T09:52:02.617Z,7.86
2022-12-22T09:54:32.182Z,7.69
2022-12-22T09:57:02.611Z,7.62
2022-12-22T09:59:32.832Z,7.52
2022-12-22T10:02:18.172Z,7.42
2022-12-22T10:04:54.266Z,7.33
2022-12-22T10:07:27.587Z,7.22
2022-12-22T10:09:57.791Z,7.15
2022-12-22T10:12:27.399Z,7.09
2022-12-22T10:14:57.047Z,7.02
2022-12-22T10:17:28.352Z,6.94
2022-12-22T10:20:09.539Z,6.88
2022-12-22T10:22:46.859Z,6.82
2022-12-22T10:25:27.702Z,6.73
2022-12-22T10:28:04.270Z,6.68
2022-12-22T10:30:35.620Z,6.62
2022-12-22T10:33:07.498Z,6.55
2022-12-22T10:35:46.315Z,6.48
2022-12-22T10:38:21.235Z,6.45
2022-12-22T10:41:01.903Z,6.44
2022-12-22T10:43:33.261Z,6.39
2022-12-22T10:46:03.563Z,6.40
2022-12-22T10:48:34.562Z,6.40
2022-12-22T10:51:06.184Z,6.38
2022-12-22T10:53:44.599Z,6.35
2022-12-22T10:56:22.202Z,6.33
2022-12-22T10:58:53.224Z,6.31
2022-12-22T11:01:29.732Z,6.26
2022-12-22T11:04:00.313Z,6.19
2022-12-22T11:06:29.853Z,6.15
2022-12-22T11:09:31.218Z,6.09
2022-12-22T11:11:51.929Z,6.00
2022-12-22T11:14:35.854Z,6.00
2022-12-22T11:17:09.310Z,6.02
2022-12-22T11:19:47.765Z,6.05
2022-12-22T11:22:26.283Z,6.10
2022-12-22T11:25:02.245Z,6.14
2022-12-22T11:27:34.523Z,6.18
2022-12-22T11:30:09.569Z,6.20
2022-12-22T11:32:50.111Z,6.20
2022-12-22T11:35:25.914Z,6.21
2022-12-22T11:38:02.749Z,6.25
2022-12-22T11:40:34.313Z,6.29
2022-12-22T11:43:19.172Z,6.28
2022-12-22T11:45:58.155Z,6.28
2022-12-22T11:48:46.141Z,6.34
2022-12-22T11:51:27.350Z,6.40
2022-12-22T11:54:12.037Z,6.45
2022-12-22T11:56:42.059Z,6.45
2022-12-22T11:59:27.480Z,6.41
2022-12-22T12:02:04.757Z,6.41
2022-12-22T12:04:47.788Z,6.42
2022-12-22T12:07:25.956Z,6.42
2022-12-22T12:10:00.130Z,6.46
2022-12-22T12:12:33.522Z,6.48
2022-12-22T12:15:09.569Z,6.52
2022-12-22T12:17:45.843Z,6.60
2022-12-22T12:20:25.194Z,6.67
2022-12-22T12:23:01.443Z,6.71
2022-12-22T12:25:35.268Z,6.68
2022-12-22T12:28:16.743Z,6.66
2022-12-22T12:30:52.399Z,6.64
2022-12-22T12:33:24.370Z,6.61
2022-12-22T12:36:00.211Z,6.61
2022-12-22T12:41:31.893Z,6.55
2022-12-22T12:44:02.326Z,6.54
2022-12-22T12:46:45.415Z,6.53
2022-12-22T12:49:37.583Z,6.50
2022-12-22T12:52:07.703Z,6.49
2022-12-22T12:54:39.371Z,6.51
2022-12-22T12:57:23.718Z,6.51
2022-12-22T12:59:53.973Z,6.52
2022-12-22T13:02:57.117Z,6.45
2022-12-22T13:05:33.172Z,6.35
2022-12-22T13:08:19.498Z,6.26
2022-12-22T13:11:12.763Z,6.13
2022-12-22T13:13:52.557Z,6.02
2022-12-22T13:16:27.508Z,5.92
2022-12-22T13:19:01.459Z,5.86
2022-12-22T13:21:54.873Z,5.80
2022-12-22T13:24:29.258Z,5.72
2022-12-22T13:27:02.747Z,5.65
2022-12-22T13:29:41.690Z,5.60
2022-12-22T13:32:18.335Z,5.57
2022-12-22T13:35:29.113Z,5.52
2022-12-22T13:37:43.174Z,5.53
2022-12-22T13:40:15.553Z,5.54
2022-12-22T13:42:47.021Z,5.56
2022-12-22T13:45:24.276Z,5.56
2022-12-22T13:47:54.195Z,5.56
2022-12-22T13:50:26.065Z,5.57
2022-12-22T13:52:57.817Z,5.56
2022-12-22T13:55:28.555Z,5.52
2022-12-22T13:58:01.439Z,5.51
2022-12-22T14:00:31.215Z,5.50
2022-12-22T14:03:01.070Z,5.52
2022-12-22T14:05:34.461Z,5.50
2022-12-22T14:08:05.508Z,5.49
2022-12-22T14:10:38.909Z,5.47
2022-12-22T14:13:13.239Z,5.46
2022-12-22T14:15:43.047Z,5.47
2022-12-22T14:18:16.114Z,5.48
2022-12-22T14:20:47.891Z,5.48
2022-12-22T14:23:22.132Z,5.51
2022-12-22T14:25:52.696Z,5.52
2022-12-22T14:28:24.399Z,5.56
2022-12-22T14:30:55.195Z,5.58
2022-12-22T14:33:32.591Z,5.61
2022-12-22T14:36:14.751Z,5.64
2022-12-22T14:38:45.561Z,5.65
2022-12-22T14:41:34.118Z,5.66
2022-12-22T14:44:03.858Z,5.67
2022-12-22T14:46:38.904Z,5.68
2022-12-22T14:49:13.607Z,5.70
2022-12-22T14:51:43.741Z,5.74
2022-12-22T14:54:21.551Z,5.77
2022-12-22T14:56:52.363Z,5.80
2022-12-22T14:59:27.238Z,5.83
2022-12-22T15:02:01.547Z,5.86
2022-12-22T15:04:31.535Z,5.88
2022-12-22T15:07:24.112Z,5.89
2022-12-22T15:10:18.430Z,5.89
2022-12-22T15:12:49.066Z,5.88
2022-12-22T15:15:19.427Z,5.87
2022-12-22T15:17:49.875Z,5.87
2022-12-22T15:20:21.923Z,5.84
2022-12-22T15:22:51.802Z,5.80
2022-12-22T15:25:22.985Z,5.79
2022-12-22T15:27:52.893Z,5.78
2022-12-22T15:30:29.872Z,5.77
2022-12-22T15:32:59.591Z,5.77
2022-12-22T15:35:31.667Z,5.77
2022-12-22T15:38:01.719Z,5.77
2022-12-22T15:40:31.189Z,5.76
2022-12-22T15:43:00.691Z,5.76
2022-12-22T15:45:30.914Z,5.76
2022-12-22T15:48:00.648Z,5.77
2022-12-22T15:50:38.804Z,5.78
2022-12-22T15:53:10.168Z,5.77
2022-12-22T15:55:42.912Z,5.79
2022-12-22T15:58:13.495Z,5.78
2022-12-22T16:00:43.123Z,5.80
2022-12-22T16:03:13.472Z,5.79
2022-12-22T16:05:43.348Z,5.78
2022-12-22T16:08:17.959Z,5.77
2022-12-22T16:10:48.315Z,5.77
2022-12-22T16:13:18.324Z,5.76
2022-12-22T16:15:47.908Z,5.75
2022-12-22T16:18:17.666Z,5.76
2022-12-22T16:20:50.190Z,5.74
2022-12-22T16:23:21.379Z,5.75
2022-12-22T16:25:56.914Z,5.77
2022-12-22T16:28:28.776Z,5.79
2022-12-22T16:30:58.546Z,5.78
2022-12-22T16:33:29.175Z,5.79
2022-12-22T16:35:58.690Z,5.80
2022-12-22T16:38:28.239Z,5.82
2022-12-22T16:40:57.748Z,5.82
2022-12-22T16:46:18.723Z,5.84
2022-12-22T16:48:49.914Z,5.84
2022-12-22T16:51:22.332Z,5.84
2022-12-22T16:53:51.820Z,5.85
2022-12-22T16:56:22.526Z,5.88
2022-12-22T16:58:51.991Z,5.90
2022-12-22T17:01:26.283Z,5.91
2022-12-22T17:03:56.537Z,5.91
2022-12-22T17:06:26.163Z,5.93
2022-12-22T17:08:55.901Z,5.94
2022-12-22T17:11:27.663Z,5.92
2022-12-22T17:14:02.800Z,5.93
2022-12-22T17:16:32.364Z,5.96
2022-12-22T17:19:01.913Z,5.98
2022-12-22T17:21:31.422Z,5.99
2022-12-22T17:24:04.425Z,5.98
2022-12-22T17:26:35.050Z,5.97
2022-12-22T17:29:05.470Z,5.97
2022-12-22T17:31:35.052Z,5.96
2022-12-22T17:34:12.245Z,5.96
2022-12-22T17:36:41.794Z,5.95
2022-12-22T17:39:14.167Z,5.94
2022-12-22T17:41:44.278Z,5.93
2022-12-22T17:44:16.474Z,5.94
2022-12-22T17:46:46.004Z,5.94
2022-12-22T17:49:15.911Z,5.93
2022-12-22T17:51:45.541Z,5.94
2022-12-22T17:54:21.655Z,5.93
2022-12-22T17:56:51.751Z,5.95
2022-12-22T17:59:21.565Z,5.96
2022-12-22T18:01:51.250Z,5.99
2022-12-22T18:04:20.983Z,6.02
2022-12-22T18:06:50.500Z,6.06
2022-12-22T18:09:22.871Z,6.09
2022-12-22T18:11:52.810Z,6.12
2022-12-22T18:14:23.331Z,6.14
2022-12-22T18:16:53.130Z,6.14
2022-12-22T18:19:22.739Z,6.14
2022-12-22T18:21:52.563Z,6.14
2022-12-22T18:24:22.161Z,6.14
2022-12-22T18:26:56.021Z,6.16
2022-12-22T18:29:31.029Z,6.17
2022-12-22T18:32:00.737Z,6.18
2022-12-22T18:34:30.405Z,6.20
2022-12-22T18:37:00.156Z,6.22
2022-12-22T18:39:29.786Z,6.23
2022-12-22T18:41:59.363Z,6.24
2022-12-22T18:44:28.868Z,6.26
2022-12-22T18:46:58.391Z,6.27
2022-12-22T18:49:28.058Z,6.27
2022-12-22T18:51:57.599Z,6.29
2022-12-22T18:54:33.350Z,6.32
2022-12-22T18:57:03.008Z,6.32
2022-12-22T18:59:33.211Z,6.34
2022-12-22T19:02:04.367Z,6.35
2022-12-22T19:04:34.135Z,6.38
2022-12-22T19:07:03.747Z,6.38
2022-12-22T19:09:33.352Z,6.40
2022-12-22T19:12:02.871Z,6.41
2022-12-22T19:14:32.773Z,6.43
2022-12-22T19:17:02.382Z,6.44
2022-12-22T19:19:32.005Z,6.48
2022-12-22T19:22:01.604Z,6.50
2022-12-22T19:24:31.074Z,6.50
2022-12-22T19:27:00.720Z,6.49
2022-12-22T19:29:30.270Z,6.46
2022-12-22T19:32:00.148Z,6.44
2022-12-22T19:34:29.865Z,6.45
2022-12-22T19:36:59.460Z,6.45
2022-12-22T19:39:29.097Z,6.48
2022-12-22T19:41:58.581Z,6.49
2022-12-22T19:44:29.736Z,6.50
2022-12-22T19:47:00.968Z,6.52
2022-12-22T19:49:30.461Z,6.54
2022-12-22T19:52:00.171Z,6.54
2022-12-22T19:54:32.530Z,6.57
2022-12-22T19:57:02.377Z,6.59
2022-12-22T19:59:38.752Z,6.60
2022-12-22T20:02:22.709Z,6.60
2022-12-22T20:04:52.711Z,6.59
2022-12-22T20:07:24.116Z,6.58
2022-12-22T20:09:53.672Z,6.57
2022-12-22T20:12:26.372Z,6.57
2022-12-22T20:14:56.127Z,6.58
2022-12-22T20:17:25.673Z,6.60
2022-12-22T20:19:55.153Z,6.63
2022-12-22T20:22:25.024Z,6.64
2022-12-22T20:24:54.829Z,6.65
2022-12-22T20:27:26.092Z,6.66
2022-12-22T20:29:55.657Z,6.69
2022-12-22T20:32:28.075Z,6.70
2022-12-22T20:34:57.996Z,6.71
2022-12-22T20:37:29.657Z,6.73
2022-12-22T20:39:59.296Z,6.73
2022-12-22T20:42:30.212Z,6.73
2022-12-22T20:45:03.857Z,6.73
2022-12-22T20:47:34.719Z,6.74
2022-12-22T20:50:04.832Z,6.74
2022-12-22T20:52:34.432Z,6.77
2022-12-22T20:55:04.147Z,6.78
2022-12-22T20:57:34.058Z,6.79
2022-12-22T21:00:03.582Z,6.80
2022-12-22T21:02:33.342Z,6.82
2022-12-22T21:05:03.205Z,6.83
2022-12-22T21:07:35.790Z,6.83
2022-12-22T21:10:12.818Z,6.83
2022-12-22T21:12:48.811Z,6.82
2022-12-22T21:15:22.053Z,6.83
2022-12-22T21:17:58.840Z,6.84
2022-12-22T21:20:33.113Z,6.85
2022-12-22T21:23:02.731Z,6.85
2022-12-22T21:25:32.224Z,6.85
2022-12-22T21:28:04.497Z,6.84
2022-12-22T21:30:37.966Z,6.84
2022-12-22T21:33:10.036Z,6.85
2022-12-22T21:35:40.463Z,6.87
2022-12-22T21:38:16.456Z,6.89
2022-12-22T21:40:50.395Z,6.90
2022-12-22T21:43:27.645Z,6.92
2022-12-22T21:46:08.123Z,6.91
2022-12-22T21:48:40.893Z,6.94
2022-12-22T21:51:13.258Z,6.97
2022-12-22T21:53:42.697Z,6.99
2022-12-22T21:56:18.013Z,7.01
2022-12-22T21:58:47.930Z,7.03
2022-12-22T22:01:17.653Z,7.04
2022-12-22T22:03:47.412Z,7.05
2022-12-22T22:06:17.066Z,7.06
2022-12-22T22:08:46.554Z,7.05
2022-12-22T22:11:19.005Z,7.05
2022-12-22T22:13:48.863Z,7.04
2022-12-22T22:16:19.176Z,7.05
2022-12-22T22:18:49.155Z,7.06
2022-12-22T22:21:18.672Z,7.07
2022-12-22T22:23:48.282Z,7.06
2022-12-22T22:26:17.929Z,7.05
2022-12-22T22:28:47.443Z,7.06
2022-12-22T22:31:17.063Z,7.06
2022-12-22T22:33:49.738Z,7.06
2022-12-22T22:36:19.550Z,7.05
2022-12-22T22:38:52.426Z,7.06
2022-12-22T22:41:21.940Z,7.05
2022-12-22T22:43:54.923Z,7.04
2022-12-22T22:46:24.479Z,7.05
2022-12-22T22:48:54.142Z,7.07
2022-12-22T22:51:23.651Z,7.06
2022-12-22T22:53:53.256Z,7.06
2022-12-22T22:56:22.969Z,7.07
2022-12-22T22:58:52.667Z,7.07
2022-12-22T23:01:22.285Z,7.06
2022-12-22T23:03:51.899Z,7.07
2022-12-22T23:06:21.605Z,7.07
2022-12-22T23:08:51.216Z,7.07
2022-12-22T23:11:20.722Z,7.08
2022-12-22T23:13:50.336Z,7.08
2022-12-22T23:16:21.650Z,7.09
2022-12-22T23:18:52.618Z,7.10
2022-12-22T23:21:22.742Z,7.11
2022-12-22T23:23:54.911Z,7.12
2022-12-22T23:26:24.626Z,7.12
2022-12-22T23:28:59.273Z,7.13
2022-12-22T23:31:32.889Z,7.13
2022-12-22T23:34:02.589Z,7.11
2022-12-22T23:36:32.514Z,7.12
2022-12-22T23:39:02.125Z,7.16
2022-12-22T23:41:31.791Z,7.18
2022-12-22T23:44:01.415Z,7.20
2022-12-22T23:46:30.951Z,7.19
2022-12-22T23:49:00.667Z,7.18
2022-12-22T23:51:30.635Z,7.18
2022-12-22T23:54:01.612Z,7.21
2022-12-22T23:56:32.440Z,7.24
2022-12-22T23:59:02.171Z,7.24
